General Aviation Weather

Text Reports

Enter one or more of the following location identifiers separated by a space:

Zip Code, Four-Character ICAO or Three-Character IATA airport codes.

METAR - Aviation Routine Weather Report
KRHP - Andrews, North Carolina
Updated at 2:35 PM GMT on February 09, 2016 (9:35 AM EST):
METAR KRHP 091435Z AUTO 24007KT 10SM OVC038 M04/M08 A2979 RMK AO2 T10381083
TAF - Terminal Area Forecast
KRHP - Andrews, North Carolina
Updated at 2:35 PM GMT on February 09, 2016 (9:35 AM EST):
No TAF is currently available for this location.
Decoded:
No decoded TAF is available.
PIREP - Pilot Weather Report
KRHP - Andrews, North Carolina
Updated at 2:35 PM GMT on February 09, 2016 (9:35 AM EST):
No PIREP is currently available for this location.
AIRMET - Airmens Meteorological Information
KRHP - Andrews, North Carolina
Updated at 2:35 PM GMT on February 09, 2016 (9:35 AM EST):
No AIRMET is currently available for this location.
SIGMET - Significant Meteorological Information
KRHP - Andrews, North Carolina
Updated at 2:35 PM GMT on February 09, 2016 (9:35 AM EST):
No SIGMET is currently available for this location.
NOTAM - Notice to Airmen
KRHP - Andrews, North Carolina
Updated at 2:35 PM GMT on February 09, 2016 (9:35 AM EST):
No NOTAM is currently available for this location.
Forecast Area
KRHP - Andrews, North Carolina
Updated at 2:35 PM GMT on February 09, 2016 (9:35 AM EST):
No NOTAM is currently available for this location.
Aviation Weather Maps